createdAt,value
2022-10-30T00:01:57.492Z,11.4
2022-10-30T00:03:59.312Z,11.38
2022-10-30T00:06:00.815Z,11.37
2022-10-30T00:08:02.027Z,11.45
2022-10-30T00:10:03.266Z,11.54
2022-10-30T00:12:04.889Z,11.53
2022-10-30T00:14:06.258Z,11.43
2022-10-30T00:16:07.217Z,11.4
2022-10-30T00:18:08.983Z,11.3
2022-10-30T00:20:10.622Z,11.34
2022-10-30T00:22:11.663Z,11.52
2022-10-30T00:24:13.280Z,11.48
2022-10-30T00:26:14.188Z,11.38
2022-10-30T00:28:16.080Z,11.34
2022-10-30T00:30:17.323Z,11.28
2022-10-30T00:32:18.945Z,11.3
2022-10-30T00:34:20.780Z,11.34
2022-10-30T00:36:21.872Z,11.4
2022-10-30T00:38:23.055Z,11.34
2022-10-30T00:40:24.741Z,11.36
2022-10-30T00:42:26.441Z,11.34
2022-10-30T00:44:28.266Z,11.32
2022-10-30T00:46:30.137Z,11.32
2022-10-30T00:48:31.538Z,11.3
2022-10-30T00:50:32.905Z,11.33
2022-10-30T00:52:34.538Z,11.23
2022-10-30T00:54:36.223Z,11.28
2022-10-30T00:56:37.422Z,11.26
2022-10-30T00:58:39.032Z,11.16
2022-10-30T01:00:40.680Z,11.24
2022-10-30T01:02:41.675Z,11.21
2022-10-30T01:04:43.381Z,11.11
2022-10-30T01:06:44.488Z,10.99
2022-10-30T01:08:46.293Z,10.86
2022-10-30T01:10:47.432Z,10.81
2022-10-30T01:12:48.365Z,10.82
2022-10-30T01:14:50.031Z,10.83
2022-10-30T01:16:51.496Z,10.75
2022-10-30T01:18:53.224Z,10.65
2022-10-30T01:20:55.040Z,10.61
2022-10-30T01:22:56.934Z,10.67
2022-10-30T01:24:58.113Z,10.68
2022-10-30T01:26:59.724Z,10.85
2022-10-30T01:29:01.495Z,10.91
2022-10-30T01:31:03.052Z,10.9
2022-10-30T01:33:04.209Z,10.85
2022-10-30T01:35:05.574Z,10.86
2022-10-30T01:37:06.979Z,10.91
2022-10-30T01:39:08.117Z,10.86
2022-10-30T01:41:09.198Z,10.93
2022-10-30T01:43:11.072Z,10.99
2022-10-30T01:45:12.218Z,10.93
2022-10-30T01:47:13.909Z,10.79
2022-10-30T01:49:14.971Z,10.7
2022-10-30T01:51:16.306Z,10.5
2022-10-30T01:53:17.596Z,10.33
2022-10-30T01:55:19.453Z,10.32
2022-10-30T01:57:20.797Z,10.32
2022-10-30T01:59:22.256Z,10.37
2022-10-30T02:01:23.962Z,10.48
2022-10-30T02:03:24.890Z,10.48
2022-10-30T02:05:25.996Z,10.5
2022-10-30T02:07:27.909Z,10.54
2022-10-30T02:09:29.586Z,10.63
2022-10-30T02:11:30.670Z,10.59
2022-10-30T02:13:31.675Z,10.61
2022-10-30T02:15:33.508Z,10.65
2022-10-30T02:17:35.231Z,10.61
2022-10-30T02:19:36.837Z,10.6
2022-10-30T02:21:38.339Z,10.65
2022-10-30T02:23:39.889Z,10.67
2022-10-30T02:25:41.014Z,10.59
2022-10-30T02:27:42.691Z,10.6
2022-10-30T02:29:43.945Z,10.55
2022-10-30T02:31:45.621Z,10.61
2022-10-30T02:33:46.813Z,10.55
2022-10-30T02:35:48.609Z,10.54
2022-10-30T02:37:50.011Z,10.51
2022-10-30T02:39:51.819Z,10.47
2022-10-30T02:41:53.383Z,10.38
2022-10-30T02:43:55.128Z,10.33
2022-10-30T02:45:56.796Z,10.26
2022-10-30T02:47:58.946Z,10.17
2022-10-30T02:49:59.608Z,10.18
2022-10-30T02:52:01.094Z,10.2
2022-10-30T02:54:02.085Z,10.13
2022-10-30T02:56:03.825Z,10.11
2022-10-30T02:58:04.984Z,10.09
2022-10-30T03:00:06.311Z,10.06
2022-10-30T03:02:07.903Z,10.14
2022-10-30T03:04:09.517Z,10.11
2022-10-30T03:06:11.338Z,10.06
2022-10-30T03:08:13.095Z,10.07
2022-10-30T03:10:14.872Z,10.05
2022-10-30T03:12:16.773Z,10
2022-10-30T03:14:18.620Z,10
2022-10-30T03:16:19.629Z,10.1
2022-10-30T03:18:20.825Z,10.24
2022-10-30T03:20:22.105Z,10.37
2022-10-30T03:22:23.890Z,10.34
2022-10-30T03:24:24.993Z,10.25
2022-10-30T03:26:26.392Z,10.18
2022-10-30T03:28:28.006Z,10.08
2022-10-30T03:30:29.312Z,10.04
2022-10-30T03:32:30.653Z,10.06
2022-10-30T03:34:32.501Z,10.08
2022-10-30T03:36:34.246Z,10.03
2022-10-30T03:38:35.965Z,10.03
2022-10-30T03:40:37.219Z,9.94
2022-10-30T03:42:38.159Z,9.85
2022-10-30T03:44:39.538Z,9.78
2022-10-30T03:46:40.660Z,9.77
2022-10-30T03:48:41.935Z,9.74
2022-10-30T03:50:43.515Z,9.74
2022-10-30T03:52:45.185Z,9.71
2022-10-30T03:54:46.672Z,9.71
2022-10-30T03:56:47.654Z,9.7
2022-10-30T03:58:49.270Z,9.67
2022-10-30T04:00:50.443Z,9.69
2022-10-30T04:03:36.049Z,9.6
2022-10-30T04:05:37.328Z,9.66
2022-10-30T04:07:38.471Z,9.57
2022-10-30T04:09:39.659Z,9.28
2022-10-30T04:11:41.456Z,9.2
2022-10-30T04:13:43.010Z,9.2
2022-10-30T04:15:44.121Z,9.13
2022-10-30T04:17:45.761Z,9.11
2022-10-30T04:19:46.863Z,9.07
2022-10-30T04:21:48.272Z,8.99
2022-10-30T04:23:50.181Z,8.96
2022-10-30T04:25:51.231Z,8.9
2022-10-30T04:27:53.145Z,8.83
2022-10-30T04:29:54.454Z,8.83
2022-10-30T04:31:55.807Z,9.06
2022-10-30T04:33:56.887Z,9.09
2022-10-30T04:35:58.460Z,9.06
2022-10-30T04:37:59.616Z,8.97
2022-10-30T04:40:01.338Z,8.91
2022-10-30T04:42:02.554Z,8.85
2022-10-30T04:44:03.940Z,8.91
2022-10-30T04:46:05.460Z,8.93
2022-10-30T04:48:06.401Z,9.11
2022-10-30T04:50:07.581Z,9.07
2022-10-30T04:52:09.074Z,9.13
2022-10-30T04:54:10.925Z,9.05
2022-10-30T04:56:12.649Z,8.95
2022-10-30T04:58:13.835Z,8.84
2022-10-30T05:00:14.976Z,8.77
2022-10-30T05:02:16.220Z,8.71
2022-10-30T05:04:17.855Z,8.63
2022-10-30T05:06:19.285Z,8.66
2022-10-30T05:08:20.530Z,8.84
2022-10-30T05:10:21.628Z,8.84
2022-10-30T05:12:23.056Z,8.81
2022-10-30T05:14:23.979Z,8.84
2022-10-30T05:16:24.962Z,8.8
2022-10-30T05:18:26.226Z,8.76
2022-10-30T05:20:27.384Z,8.76
2022-10-30T05:22:28.508Z,8.76
2022-10-30T05:24:29.794Z,8.74
2022-10-30T05:26:31.546Z,8.73
2022-10-30T05:28:32.944Z,8.71
2022-10-30T05:30:34.356Z,8.68
2022-10-30T05:32:35.962Z,8.39
2022-10-30T05:34:37.263Z,8.3
2022-10-30T05:36:38.707Z,8.3
2022-10-30T05:38:40.514Z,8.27
2022-10-30T05:40:41.673Z,8.17
2022-10-30T05:42:42.679Z,8.17
2022-10-30T05:45:00.751Z,8.11
2022-10-30T05:46:45.652Z,8.11
2022-10-30T05:48:46.668Z,8.15
2022-10-30T05:50:47.994Z,8.12
2022-10-30T05:52:49.707Z,8.03
2022-10-30T05:54:50.938Z,8
2022-10-30T05:56:51.942Z,8.04
2022-10-30T05:58:53.454Z,8.24
2022-10-30T06:00:55.231Z,8.24
2022-10-30T06:02:56.541Z,8.24
2022-10-30T06:04:57.932Z,8.3
2022-10-30T06:06:59.819Z,8.33
2022-10-30T06:09:01.413Z,8.39
2022-10-30T06:11:02.843Z,8.38
2022-10-30T06:13:04.732Z,8.41
2022-10-30T06:15:06.059Z,8.35
2022-10-30T06:17:07.400Z,8.37
2022-10-30T06:19:10.748Z,8.36
2022-10-30T06:21:10.868Z,8.35
2022-10-30T06:23:11.913Z,8.3
2022-10-30T06:25:13.268Z,8.15
2022-10-30T06:27:14.325Z,8.15
2022-10-30T06:29:16.210Z,8.1
2022-10-30T06:31:17.528Z,8.11
2022-10-30T06:33:19.106Z,8.18
2022-10-30T06:35:20.748Z,8.22
2022-10-30T06:37:22.680Z,8.24
2022-10-30T06:39:24.197Z,8.15
2022-10-30T06:41:30.065Z,8.07
2022-10-30T06:43:27.325Z,8.09
2022-10-30T06:45:28.543Z,8.09
2022-10-30T06:47:29.731Z,8.12
2022-10-30T06:49:30.750Z,8.17
2022-10-30T06:51:32.484Z,8.18
2022-10-30T06:53:33.998Z,8.16
2022-10-30T06:55:35.232Z,8.2
2022-10-30T06:57:36.993Z,8.26
2022-10-30T06:59:38.842Z,8.23
2022-10-30T07:01:40.710Z,8.3
2022-10-30T07:03:42.057Z,8.34
2022-10-30T07:05:43.928Z,8.33
2022-10-30T07:07:45.098Z,8.32
2022-10-30T07:09:46.783Z,8.3
2022-10-30T07:11:48.420Z,8.33
2022-10-30T07:13:49.397Z,8.39
2022-10-30T07:15:50.849Z,8.47
2022-10-30T07:17:52.327Z,8.53
2022-10-30T07:19:53.607Z,8.51
2022-10-30T07:21:55.373Z,8.66
2022-10-30T07:23:56.907Z,8.95
2022-10-30T07:26:02.584Z,9.31
2022-10-30T07:28:00.457Z,9.53
2022-10-30T07:30:01.878Z,9.19
2022-10-30T07:32:03.882Z,9.47
2022-10-30T07:34:05.020Z,9.64
2022-10-30T07:36:06.091Z,9.61
2022-10-30T07:38:07.510Z,9.06
2022-10-30T07:42:10.197Z,9.21
2022-10-30T07:44:11.556Z,9.54
2022-10-30T07:46:13.087Z,9.86
2022-10-30T07:48:14.234Z,10.05
2022-10-30T07:50:15.501Z,10.18
2022-10-30T07:52:17.689Z,10.25
2022-10-30T07:54:18.527Z,10.16
2022-10-30T07:56:19.690Z,10.17
2022-10-30T07:58:20.573Z,10.42
2022-10-30T08:00:22.409Z,10.57
2022-10-30T08:02:23.503Z,10.79
2022-10-30T08:04:24.920Z,10.7
2022-10-30T08:06:27.146Z,10.29
2022-10-30T08:08:28.338Z,10.12
2022-10-30T08:10:29.770Z,10.21
2022-10-30T08:12:30.695Z,10.64
2022-10-30T08:14:32.457Z,10.58
2022-10-30T08:16:34.651Z,10.49
2022-10-30T08:18:35.879Z,10.68
2022-10-30T08:20:37.275Z,10.75
2022-10-30T08:22:39.190Z,10.81
2022-10-30T08:24:40.632Z,11.03
2022-10-30T08:26:42.090Z,11.16
2022-10-30T08:28:43.514Z,10.83
2022-10-30T08:30:44.377Z,10.95
2022-10-30T08:32:45.339Z,11.12
2022-10-30T08:34:46.511Z,11.14
2022-10-30T08:36:49.244Z,10.91
2022-10-30T08:38:49.341Z,10.99
2022-10-30T08:40:50.928Z,11.25
2022-10-30T08:42:51.822Z,10.94
2022-10-30T08:44:52.979Z,11.29
2022-10-30T08:46:54.197Z,11.18
2022-10-30T08:48:55.746Z,11.36
2022-10-30T08:50:56.627Z,11.73
2022-10-30T08:52:57.949Z,11.65
2022-10-30T08:54:59.232Z,11.9
2022-10-30T08:57:00.380Z,12.23
2022-10-30T08:59:01.851Z,12.37
2022-10-30T09:01:04.282Z,12.48
2022-10-30T09:03:05.779Z,12.45
2022-10-30T09:05:07.577Z,12.42
2022-10-30T09:07:10.402Z,12.63
2022-10-30T09:09:10.173Z,12.74
2022-10-30T09:11:11.720Z,13.02
2022-10-30T09:13:12.786Z,13.3
2022-10-30T09:15:14.155Z,13.43
2022-10-30T09:17:15.775Z,13.46
2022-10-30T09:19:18.865Z,13.33
2022-10-30T09:21:18.630Z,13.69
2022-10-30T09:23:19.556Z,13.66
2022-10-30T09:25:21.377Z,13.79
2022-10-30T09:27:23.184Z,13.74
2022-10-30T09:29:24.573Z,14
2022-10-30T09:31:26.380Z,14.08
2022-10-30T09:33:28.113Z,13.96
2022-10-30T09:35:30.700Z,14.09
2022-10-30T09:37:31.687Z,14.13
2022-10-30T09:39:32.560Z,14.26
2022-10-30T09:41:33.622Z,14.52
2022-10-30T09:43:35.008Z,14.49
2022-10-30T09:45:36.578Z,14.64
2022-10-30T09:47:37.936Z,14.94
2022-10-30T09:49:39.234Z,15.1
2022-10-30T09:51:40.812Z,15.5
2022-10-30T09:53:42.443Z,16
2022-10-30T09:55:44.054Z,16.15
2022-10-30T09:57:45.902Z,16.35
2022-10-30T09:59:47.227Z,16.69
2022-10-30T10:01:48.950Z,17.02
2022-10-30T10:05:51.755Z,17.5
2022-10-30T10:07:52.744Z,17.83
2022-10-30T10:09:54.385Z,18.19
2022-10-30T10:11:55.279Z,18.38
2022-10-30T10:13:56.646Z,18.62
2022-10-30T10:15:58.387Z,18.11
2022-10-30T10:18:00.103Z,18.4
2022-10-30T10:20:01.516Z,18.53
2022-10-30T10:22:03.384Z,18.57
2022-10-30T10:24:04.813Z,18.33
2022-10-30T10:26:06.504Z,18.34
2022-10-30T10:28:07.512Z,18.2
2022-10-30T10:30:09.798Z,18.3
2022-10-30T10:32:11.339Z,18.92
2022-10-30T10:34:12.330Z,19.3
2022-10-30T10:36:13.513Z,19.34
2022-10-30T10:38:14.893Z,19.49
2022-10-30T10:40:16.597Z,19.6
2022-10-30T10:42:18.129Z,19.56
2022-10-30T10:44:18.931Z,18.92
2022-10-30T10:46:20.433Z,19.19
2022-10-30T10:47:07.086Z,18.86
2022-10-30T10:49:05.684Z,18.89
2022-10-30T10:51:06.500Z,19.06
2022-10-30T10:53:07.311Z,18.83
2022-10-30T10:55:08.413Z,19.03
2022-10-30T10:57:09.401Z,19.25
2022-10-30T10:59:10.846Z,19.3
2022-10-30T11:01:12.474Z,19.11
2022-10-30T11:03:14.125Z,19.29
2022-10-30T11:05:15.909Z,19.46
2022-10-30T11:07:17.415Z,19.78
2022-10-30T11:09:19.204Z,19.91
2022-10-30T11:11:20.273Z,19.73
2022-10-30T11:15:22.847Z,20.28
2022-10-30T11:17:24.172Z,20.54
2022-10-30T11:19:25.488Z,20.29
2022-10-30T11:21:26.644Z,20.31
2022-10-30T11:23:28.353Z,20.48
2022-10-30T11:25:31.348Z,20.53
2022-10-30T11:27:30.023Z,20.1
2022-10-30T11:29:31.193Z,20.14
2022-10-30T11:31:32.224Z,20.42
2022-10-30T11:33:33.889Z,20.81
2022-10-30T11:35:35.420Z,21.13
2022-10-30T11:37:36.553Z,21.38
2022-10-30T11:39:37.510Z,21.26
2022-10-30T11:41:38.957Z,21.03
2022-10-30T11:43:40.172Z,21.34
2022-10-30T11:45:41.321Z,21.65
2022-10-30T11:47:42.764Z,22.23
2022-10-30T11:49:43.531Z,22.42
2022-10-30T11:51:44.595Z,22.6
2022-10-30T11:53:45.410Z,22.8
2022-10-30T11:55:47.127Z,22.56
2022-10-30T11:57:48.860Z,22.61
2022-10-30T11:59:50.512Z,23.06
2022-10-30T12:01:51.673Z,23.28
2022-10-30T12:03:53.313Z,23.31
2022-10-30T12:05:54.273Z,23.32
2022-10-30T12:07:55.463Z,23.72
2022-10-30T12:09:57.143Z,23.74
2022-10-30T12:12:00.655Z,23.28
2022-10-30T12:13:59.441Z,23.61
2022-10-30T12:16:00.539Z,23.93
2022-10-30T12:18:01.389Z,24.37
2022-10-30T12:20:02.533Z,24.4
2022-10-30T12:22:05.316Z,24.16
2022-10-30T12:24:04.837Z,24.14
2022-10-30T12:26:06.382Z,24.47
2022-10-30T12:28:07.977Z,24.24
2022-10-30T12:30:10.096Z,24.56
2022-10-30T12:32:11.528Z,24.38
2022-10-30T12:36:13.654Z,24.12
2022-10-30T12:38:14.572Z,24.16
2022-10-30T12:40:15.639Z,24.33
2022-10-30T12:42:17.390Z,24.38
2022-10-30T12:44:18.953Z,24.4
2022-10-30T12:46:20.051Z,24.03
2022-10-30T12:48:21.647Z,24.34
2022-10-30T12:50:22.417Z,24.59
2022-10-30T12:52:23.840Z,24.71
2022-10-30T12:54:25.866Z,24.62
2022-10-30T12:56:27.001Z,24.84
2022-10-30T12:58:28.213Z,24.82
2022-10-30T13:00:29.134Z,25.29
2022-10-30T13:02:30.351Z,25.1
2022-10-30T13:04:31.199Z,25.3
2022-10-30T13:06:32.734Z,25.58
2022-10-30T13:08:33.482Z,25.78
2022-10-30T13:10:34.901Z,25.56
2022-10-30T13:12:36.034Z,25.91
2022-10-30T13:14:37.599Z,26.34
2022-10-30T13:16:38.701Z,26.64
2022-10-30T13:18:40.050Z,26.63
2022-10-30T13:20:41.228Z,25.76
2022-10-30T13:22:42.605Z,26.24
2022-10-30T13:24:43.892Z,26.45
2022-10-30T13:26:45.076Z,26.49
2022-10-30T13:28:46.347Z,26.23
2022-10-30T13:30:47.626Z,26.34
2022-10-30T13:32:48.690Z,25.52
2022-10-30T13:34:49.609Z,25.6
2022-10-30T13:36:50.870Z,25.77
2022-10-30T13:38:52.447Z,25.59
2022-10-30T13:40:53.766Z,25.88
2022-10-30T13:42:55.296Z,25.89
2022-10-30T13:44:56.620Z,26.01
2022-10-30T13:46:57.993Z,26.37
2022-10-30T13:48:58.942Z,26.08
2022-10-30T13:50:59.703Z,26.57
2022-10-30T13:53:00.705Z,26.72
2022-10-30T13:55:02.136Z,26.83
2022-10-30T13:57:03.863Z,26.53
2022-10-30T13:59:05.418Z,26.54
2022-10-30T14:01:06.873Z,26.63
2022-10-30T14:03:07.836Z,26.06
2022-10-30T14:05:08.549Z,26.05
2022-10-30T14:07:10.211Z,26.19
2022-10-30T14:09:11.802Z,26.24
2022-10-30T14:11:13.022Z,26.49
2022-10-30T14:13:14.570Z,25.21
2022-10-30T14:15:16.196Z,24.15
2022-10-30T14:17:17.671Z,23.77
2022-10-30T14:19:19.116Z,23.36
2022-10-30T14:21:20.510Z,23.09
2022-10-30T14:23:21.862Z,22.88
2022-10-30T14:25:23.098Z,22.96
2022-10-30T14:27:24.560Z,22.83
2022-10-30T14:29:25.427Z,22.54
2022-10-30T14:31:26.910Z,22.12
2022-10-30T14:33:28.287Z,21.94
2022-10-30T14:35:30.022Z,21.89
2022-10-30T14:37:30.991Z,21.98
2022-10-30T14:39:32.100Z,21.97
2022-10-30T14:41:32.911Z,21.88
2022-10-30T14:43:34.390Z,21.79
2022-10-30T14:45:35.880Z,21.81
2022-10-30T14:47:36.686Z,21.82
2022-10-30T14:49:38.102Z,21.83
2022-10-30T14:51:39.656Z,21.72
2022-10-30T14:53:40.720Z,21.66
2022-10-30T14:55:41.725Z,21.52
2022-10-30T14:57:42.596Z,21.38
2022-10-30T14:59:43.499Z,21.2
2022-10-30T15:01:44.919Z,20.99
2022-10-30T15:03:46.471Z,20.88
2022-10-30T15:05:48.052Z,20.83
2022-10-30T15:07:49.601Z,20.76
2022-10-30T15:09:51.142Z,20.64
2022-10-30T15:11:51.899Z,20.55
2022-10-30T15:13:53.570Z,20.39
2022-10-30T15:15:54.510Z,20.32
2022-10-30T15:17:55.597Z,20.2
2022-10-30T15:19:56.995Z,20.12
2022-10-30T15:21:58.512Z,20.1
2022-10-30T15:23:59.367Z,20.01
2022-10-30T15:26:05.021Z,19.85
2022-10-30T15:28:02.438Z,19.79
2022-10-30T15:30:02.840Z,19.67
2022-10-30T15:32:04.080Z,19.48
2022-10-30T15:34:05.128Z,19.47
2022-10-30T15:36:06.849Z,19.36
2022-10-30T15:38:07.984Z,19.31
2022-10-30T15:40:09.538Z,19.19
2022-10-30T15:42:10.428Z,19.11
2022-10-30T15:44:11.607Z,19.02
2022-10-30T15:46:12.891Z,18.92
2022-10-30T15:48:14.114Z,18.81
2022-10-30T15:50:15.119Z,18.6
2022-10-30T15:52:16.778Z,18.51
2022-10-30T15:54:18.529Z,18.4
2022-10-30T15:56:20.137Z,18.29
2022-10-30T15:58:21.222Z,18.17
2022-10-30T16:00:22.464Z,18.03
2022-10-30T16:02:24.180Z,17.82
2022-10-30T16:04:25.137Z,17.65
2022-10-30T16:06:27.016Z,17.49
2022-10-30T16:08:27.625Z,17.34
2022-10-30T16:10:29.012Z,17.25
2022-10-30T16:12:30.226Z,17.3
2022-10-30T16:14:32.043Z,17.3
2022-10-30T16:16:33.839Z,17.18
2022-10-30T16:18:34.869Z,17.2
2022-10-30T16:20:36.600Z,17.3
2022-10-30T16:22:37.907Z,17.31
2022-10-30T16:24:39.078Z,17.3
2022-10-30T16:26:40.048Z,17.11
2022-10-30T16:28:40.879Z,16.92
2022-10-30T16:30:41.816Z,16.8
2022-10-30T16:32:42.964Z,16.68
2022-10-30T16:34:44.541Z,16.56
2022-10-30T16:36:45.902Z,16.5
2022-10-30T16:38:47.321Z,16.61
2022-10-30T16:40:48.419Z,16.57
2022-10-30T16:42:49.481Z,16.75
2022-10-30T16:44:51.273Z,16.64
2022-10-30T16:46:52.202Z,16.51
2022-10-30T16:48:53.836Z,16.51
2022-10-30T16:50:55.290Z,16.56
2022-10-30T16:52:57.112Z,16.57
2022-10-30T16:54:58.225Z,16.41
2022-10-30T16:57:00.015Z,16.3
2022-10-30T16:59:01.486Z,16.32
2022-10-30T17:01:03.300Z,16.32
2022-10-30T17:03:04.267Z,16.3
2022-10-30T17:05:06.105Z,16.06
2022-10-30T17:07:07.774Z,16.25
2022-10-30T17:09:09.579Z,16.25
2022-10-30T17:11:10.625Z,16.03
2022-10-30T17:13:11.721Z,15.88
2022-10-30T17:15:13.270Z,15.75
2022-10-30T17:17:14.874Z,15.67
2022-10-30T17:19:16.340Z,15.51
2022-10-30T17:21:18.025Z,15.54
2022-10-30T17:23:19.573Z,15.4
2022-10-30T17:25:20.576Z,15.34
2022-10-30T17:27:22.338Z,15.27
2022-10-30T17:29:23.734Z,15.31
2022-10-30T17:31:25.438Z,15.38
2022-10-30T17:34:10.623Z,15.16
2022-10-30T17:36:11.877Z,15.43
2022-10-30T17:38:13.578Z,15.27
2022-10-30T17:40:14.637Z,15.26
2022-10-30T17:42:16.392Z,15.1
2022-10-30T17:44:18.063Z,15.34
2022-10-30T17:46:20.414Z,15.26
2022-10-30T17:48:21.481Z,15.29
2022-10-30T17:50:22.982Z,15.17
2022-10-30T17:52:23.939Z,15.23
2022-10-30T17:54:24.834Z,15.05
2022-10-30T17:56:25.832Z,15.01
2022-10-30T17:58:27.157Z,14.85
2022-10-30T18:00:28.860Z,14.75
2022-10-30T18:02:30.467Z,14.55
2022-10-30T18:04:32.266Z,14.53
2022-10-30T18:06:33.450Z,14.74
2022-10-30T18:08:34.510Z,14.74
2022-10-30T18:10:35.584Z,14.74
2022-10-30T18:12:36.464Z,14.55
2022-10-30T18:14:37.391Z,14.45
2022-10-30T18:16:39.098Z,14.44
2022-10-30T18:18:40.949Z,14.52
2022-10-30T18:20:41.955Z,14.47
2022-10-30T18:22:43.728Z,14.31
2022-10-30T18:24:44.659Z,14.36
2022-10-30T18:26:45.682Z,14.24
2022-10-30T18:28:46.803Z,14.23
2022-10-30T18:30:48.253Z,14.26
2022-10-30T18:32:49.955Z,14.18
2022-10-30T18:36:52.801Z,14.05
2022-10-30T18:38:54.639Z,13.91
2022-10-30T18:40:56.483Z,13.83
2022-10-30T18:42:57.953Z,13.83
2022-10-30T18:44:58.429Z,13.77
2022-10-30T18:47:02.882Z,13.69
2022-10-30T18:49:01.752Z,13.33
2022-10-30T18:51:02.944Z,13.29
2022-10-30T18:53:04.032Z,13.31
2022-10-30T18:55:05.367Z,13.2
2022-10-30T18:57:06.280Z,13.32
2022-10-30T18:59:07.897Z,13.42
2022-10-30T19:01:12.224Z,13.41
2022-10-30T19:03:10.724Z,13.21
2022-10-30T19:05:11.897Z,13.56
2022-10-30T19:07:13.056Z,13.52
2022-10-30T19:09:14.338Z,13.57
2022-10-30T19:11:17.585Z,13.54
2022-10-30T19:13:17.520Z,13.35
2022-10-30T19:15:18.356Z,13.24
2022-10-30T19:17:19.520Z,13.15
2022-10-30T19:19:21.189Z,13.04
2022-10-30T19:21:22.367Z,13.2
2022-10-30T19:23:23.816Z,13.21
2022-10-30T19:25:25.135Z,13.27
2022-10-30T19:27:26.675Z,13.21
2022-10-30T19:29:27.648Z,13.02
2022-10-30T19:31:28.744Z,12.89
2022-10-30T19:33:29.643Z,12.93
2022-10-30T19:35:30.958Z,12.81
2022-10-30T19:37:32.165Z,12.74
2022-10-30T19:39:33.544Z,12.8
2022-10-30T19:41:35.464Z,12.61
2022-10-30T19:43:36.693Z,12.52
2022-10-30T19:45:37.889Z,12.46
2022-10-30T19:47:39.436Z,12.64
2022-10-30T19:49:40.398Z,12.62
2022-10-30T19:51:41.997Z,12.48
2022-10-30T19:53:42.919Z,12.51
2022-10-30T19:55:44.314Z,12.39
2022-10-30T19:57:45.387Z,12.27
2022-10-30T19:59:46.448Z,12.07
2022-10-30T20:01:47.450Z,12
2022-10-30T20:03:48.427Z,11.89
2022-10-30T20:05:49.886Z,11.79
2022-10-30T20:07:51.600Z,11.96
2022-10-30T20:09:53.490Z,11.84
2022-10-30T20:11:55.187Z,11.93
2022-10-30T20:13:57.050Z,11.97
2022-10-30T20:15:58.127Z,12.23
2022-10-30T20:17:59.772Z,12.1
2022-10-30T20:20:00.909Z,11.95
2022-10-30T20:22:01.948Z,11.92
2022-10-30T20:24:03.673Z,11.88
2022-10-30T20:26:05.056Z,12.01
2022-10-30T20:28:07.079Z,12.06
2022-10-30T20:30:07.837Z,12.1
2022-10-30T20:32:09.216Z,11.98
2022-10-30T20:34:10.832Z,12
2022-10-30T20:36:12.470Z,12.04
2022-10-30T20:38:13.955Z,11.84
2022-10-30T20:40:15.732Z,11.74
2022-10-30T20:42:17.120Z,11.62
2022-10-30T20:44:18.827Z,11.59
2022-10-30T20:46:20.295Z,11.82
2022-10-30T20:48:22.157Z,11.91
2022-10-30T20:50:23.149Z,11.93
2022-10-30T20:52:24.644Z,12.01
2022-10-30T20:54:25.663Z,12.06
2022-10-30T20:56:27.382Z,11.82
2022-10-30T20:58:29.302Z,11.79
2022-10-30T21:00:30.246Z,11.79
2022-10-30T21:02:31.636Z,11.71
2022-10-30T21:04:32.697Z,11.71
2022-10-30T21:06:34.068Z,11.69
2022-10-30T21:08:35.074Z,11.62
2022-10-30T21:10:36.377Z,11.56
2022-10-30T21:12:37.975Z,11.63
2022-10-30T21:14:39.580Z,11.71
2022-10-30T21:16:41.175Z,11.68
2022-10-30T21:18:42.575Z,11.64
2022-10-30T21:20:44.441Z,11.51
2022-10-30T21:22:45.789Z,11.41
2022-10-30T21:24:46.884Z,11.38
2022-10-30T21:26:48.812Z,11.39
2022-10-30T21:28:50.363Z,11.32
2022-10-30T21:30:51.985Z,11.3
2022-10-30T21:32:53.154Z,11.23
2022-10-30T21:34:54.998Z,11.12
2022-10-30T21:36:56.735Z,11.12
2022-10-30T21:38:58.072Z,11.21
2022-10-30T21:40:59.383Z,11.29
2022-10-30T21:43:03.018Z,11.3
2022-10-30T21:45:01.638Z,11.26
2022-10-30T21:47:02.827Z,11.23
2022-10-30T21:49:03.985Z,11.14
2022-10-30T21:51:05.203Z,11.03
2022-10-30T21:53:06.336Z,10.89
2022-10-30T21:55:07.351Z,11.03
2022-10-30T21:59:10.284Z,10.97
2022-10-30T22:01:11.302Z,10.7
2022-10-30T22:03:12.177Z,10.38
2022-10-30T22:05:13.732Z,10.72
2022-10-30T22:07:15.486Z,10.7
2022-10-30T22:09:17.411Z,10.74
2022-10-30T22:11:18.955Z,10.87
2022-10-30T22:13:20.662Z,10.86
2022-10-30T22:15:22.133Z,10.79
2022-10-30T22:17:23.800Z,10.7
2022-10-30T22:19:25.163Z,10.58
2022-10-30T22:21:26.167Z,10.46
2022-10-30T22:23:27.812Z,10.51
2022-10-30T22:25:28.939Z,10.51
2022-10-30T22:27:30.050Z,10.45
2022-10-30T22:29:31.253Z,10.55
2022-10-30T22:31:32.628Z,10.75
2022-10-30T22:33:33.610Z,10.68
2022-10-30T22:35:34.768Z,10.57
2022-10-30T22:37:35.727Z,10.54
2022-10-30T22:39:36.708Z,10.39
2022-10-30T22:41:38.451Z,10.31
2022-10-30T22:43:39.277Z,10.23
2022-10-30T22:45:40.455Z,10.31
2022-10-30T22:47:41.917Z,10.31
2022-10-30T22:49:43.357Z,10.19
2022-10-30T22:51:44.647Z,10.09
2022-10-30T22:53:45.965Z,10.2
2022-10-30T22:55:47.392Z,10.24
2022-10-30T22:57:49.208Z,10.03
2022-10-30T22:59:50.333Z,10.28
2022-10-30T23:01:51.665Z,10.38
2022-10-30T23:03:52.922Z,10.41
2022-10-30T23:05:58.531Z,10.4
2022-10-30T23:07:55.419Z,10.3
2022-10-30T23:09:56.472Z,10.18
2022-10-30T23:11:58.147Z,10.06
2022-10-30T23:13:59.095Z,10.11
2022-10-30T23:16:00.655Z,10.29
2022-10-30T23:18:01.586Z,10.31
2022-10-30T23:20:02.650Z,10.3
2022-10-30T23:22:03.826Z,10.41
2022-10-30T23:24:05.043Z,10.62
2022-10-30T23:26:06.523Z,10.63
2022-10-30T23:28:07.866Z,10.52
2022-10-30T23:30:09.610Z,10.38
2022-10-30T23:32:10.722Z,10.24
2022-10-30T23:34:12.198Z,10.11
2022-10-30T23:36:13.165Z,10.13
2022-10-30T23:40:15.646Z,10.1
2022-10-30T23:42:17.092Z,10.12
2022-10-30T23:44:18.084Z,10.16
2022-10-30T23:46:19.905Z,10.07
2022-10-30T23:48:20.722Z,9.92
2022-10-30T23:50:21.700Z,9.83
2022-10-30T23:52:23.165Z,9.82
2022-10-30T23:54:24.261Z,9.74
2022-10-30T23:56:25.829Z,9.62
2022-10-30T23:58:27.281Z,9.58
